Cross Key, Florida
Current Conditions -  °F | °C
As of 3:58 PM on Thursday 20 Nov 2014 (Local Time) from KHST Reporting Station
Scattered Clouds Scattered Clouds  
Wind Chill: 75°   Ceiling: Unl
Heat Index: 75°   Visibility: 10mi
Dew Point: 65°   Wind: 20mph
Humidity: 71%   Direction: 40°NE
Pressure: 30.08"   Gusts: 24mph
Location:  25.2553°N, 80.3918°W
Report Text: KHST 202058Z AUTO 04017G21KT 10SM SCT055 24/18 A3008 RMK AO2 SLP189 T02380182 55003 $
Loading
Personal Weather Stations






























Interactive Weather Map New forecast layout! Learn more

10-Day Weather Forecast

Advertisements
Track Severe Weather on mobile